sensor_id;sensor_type;location;lat;lon;timestamp;P1;durP1;ratioP1;P2;durP2;ratioP2
5257;SDS011;2651;51.594;9.928;2023-05-10T00:00:36;3.20;;;2.67;;
5257;SDS011;2651;51.594;9.928;2023-05-10T00:01:38;3.20;;;2.90;;
5257;SDS011;2651;51.594;9.928;2023-05-10T00:02:39;4.73;;;3.33;;
5257;SDS011;2651;51.594;9.928;2023-05-10T00:03:41;4.80;;;3.33;;
5257;SDS011;2651;51.594;9.928;2023-05-10T00:04:43;4.00;;;3.20;;
5257;SDS011;2651;51.594;9.928;2023-05-10T00:05:45;4.20;;;2.90;;
5257;SDS011;2651;51.594;9.928;2023-05-10T00:06:46;4.80;;;2.53;;
5257;SDS011;2651;51.594;9.928;2023-05-10T00:07:48;4.00;;;2.80;;
5257;SDS011;2651;51.594;9.928;2023-05-10T00:08:50;2.80;;;2.60;;
5257;SDS011;2651;51.594;9.928;2023-05-10T00:09:51;7.43;;;2.73;;
5257;SDS011;2651;51.594;9.928;2023-05-10T00:10:53;3.13;;;2.63;;
5257;SDS011;2651;51.594;9.928;2023-05-10T00:11:55;2.80;;;2.60;;
5257;SDS011;2651;51.594;9.928;2023-05-10T00:12:59;3.30;;;3.00;;
5257;SDS011;2651;51.594;9.928;2023-05-10T00:14:01;4.57;;;3.03;;
5257;SDS011;2651;51.594;9.928;2023-05-10T00:15:02;3.70;;;2.90;;
5257;SDS011;2651;51.594;9.928;2023-05-10T00:16:04;3.33;;;2.37;;
5257;SDS011;2651;51.594;9.928;2023-05-10T00:17:06;3.23;;;2.60;;
5257;SDS011;2651;51.594;9.928;2023-05-10T00:18:08;4.10;;;2.90;;
5257;SDS011;2651;51.594;9.928;2023-05-10T00:19:10;3.37;;;3.07;;
5257;SDS011;2651;51.594;9.928;2023-05-10T00:20:12;9.90;;;3.60;;
5257;SDS011;2651;51.594;9.928;2023-05-10T00:21:14;8.17;;;3.50;;
5257;SDS011;2651;51.594;9.928;2023-05-10T00:22:16;5.67;;;2.93;;
5257;SDS011;2651;51.594;9.928;2023-05-10T00:23:17;4.10;;;3.33;;
5257;SDS011;2651;51.594;9.928;2023-05-10T00:24:19;3.03;;;2.73;;
5257;SDS011;2651;51.594;9.928;2023-05-10T00:25:20;3.93;;;3.17;;
5257;SDS011;2651;51.594;9.928;2023-05-10T00:26:25;3.60;;;2.90;;
5257;SDS011;2651;51.594;9.928;2023-05-10T00:27:26;5.53;;;3.27;;
5257;SDS011;2651;51.594;9.928;2023-05-10T00:28:28;3.17;;;2.87;;
5257;SDS011;2651;51.594;9.928;2023-05-10T00:29:30;3.63;;;2.90;;
5257;SDS011;2651;51.594;9.928;2023-05-10T00:30:32;4.13;;;3.03;;
5257;SDS011;2651;51.594;9.928;2023-05-10T00:31:34;6.03;;;3.03;;
5257;SDS011;2651;51.594;9.928;2023-05-10T00:32:36;4.10;;;3.50;;
5257;SDS011;2651;51.594;9.928;2023-05-10T00:33:37;3.30;;;2.97;;
5257;SDS011;2651;51.594;9.928;2023-05-10T00:34:39;3.13;;;2.93;;
5257;SDS011;2651;51.594;9.928;2023-05-10T00:35:41;8.13;;;3.40;;
5257;SDS011;2651;51.594;9.928;2023-05-10T00:36:42;3.73;;;3.43;;
5257;SDS011;2651;51.594;9.928;2023-05-10T00:37:44;4.23;;;2.87;;
5257;SDS011;2651;51.594;9.928;2023-05-10T00:38:46;4.40;;;2.70;;
5257;SDS011;2651;51.594;9.928;2023-05-10T00:39:47;4.27;;;3.13;;
5257;SDS011;2651;51.594;9.928;2023-05-10T00:40:49;7.20;;;3.00;;
5257;SDS011;2651;51.594;9.928;2023-05-10T00:41:50;6.80;;;3.30;;
5257;SDS011;2651;51.594;9.928;2023-05-10T00:42:52;6.00;;;3.23;;
5257;SDS011;2651;51.594;9.928;2023-05-10T00:43:54;3.53;;;3.00;;
5257;SDS011;2651;51.594;9.928;2023-05-10T00:44:55;13.73;;;3.20;;
5257;SDS011;2651;51.594;9.928;2023-05-10T00:45:57;6.53;;;3.77;;
5257;SDS011;2651;51.594;9.928;2023-05-10T00:46:59;3.27;;;3.03;;
5257;SDS011;2651;51.594;9.928;2023-05-10T00:48:01;4.30;;;3.40;;
5257;SDS011;2651;51.594;9.928;2023-05-10T00:49:04;4.10;;;2.80;;
5257;SDS011;2651;51.594;9.928;2023-05-10T00:50:07;5.80;;;3.23;;
5257;SDS011;2651;51.594;9.928;2023-05-10T00:51:10;4.60;;;3.27;;
5257;SDS011;2651;51.594;9.928;2023-05-10T00:52:11;4.07;;;3.67;;
5257;SDS011;2651;51.594;9.928;2023-05-10T00:53:14;6.37;;;3.30;;
5257;SDS011;2651;51.594;9.928;2023-05-10T00:54:16;3.10;;;2.90;;
5257;SDS011;2651;51.594;9.928;2023-05-10T00:55:18;4.40;;;3.03;;
5257;SDS011;2651;51.594;9.928;2023-05-10T00:56:20;3.07;;;2.80;;
5257;SDS011;2651;51.594;9.928;2023-05-10T00:57:24;5.57;;;3.27;;
5257;SDS011;2651;51.594;9.928;2023-05-10T00:58:26;3.70;;;3.17;;
5257;SDS011;2651;51.594;9.928;2023-05-10T00:59:29;5.30;;;3.47;;
5257;SDS011;2651;51.594;9.928;2023-05-10T01:00:32;3.60;;;3.30;;
5257;SDS011;2651;51.594;9.928;2023-05-10T01:01:35;3.10;;;2.90;;
5257;SDS011;2651;51.594;9.928;2023-05-10T01:02:37;3.20;;;2.90;;
5257;SDS011;2651;51.594;9.928;2023-05-10T01:03:39;3.87;;;3.20;;
5257;SDS011;2651;51.594;9.928;2023-05-10T01:04:41;4.07;;;3.47;;
5257;SDS011;2651;51.594;9.928;2023-05-10T01:05:44;3.90;;;3.53;;
5257;SDS011;2651;51.594;9.928;2023-05-10T01:06:46;3.40;;;3.10;;
5257;SDS011;2651;51.594;9.928;2023-05-10T01:07:47;4.83;;;3.17;;
5257;SDS011;2651;51.594;9.928;2023-05-10T01:08:49;5.80;;;3.60;;
5257;SDS011;2651;51.594;9.928;2023-05-10T01:09:51;6.20;;;3.20;;
5257;SDS011;2651;51.594;9.928;2023-05-10T01:10:52;5.50;;;3.40;;
5257;SDS011;2651;51.594;9.928;2023-05-10T01:11:55;3.60;;;3.30;;
5257;SDS011;2651;51.594;9.928;2023-05-10T01:12:57;3.70;;;3.40;;
5257;SDS011;2651;51.594;9.928;2023-05-10T01:14:00;5.97;;;3.70;;
5257;SDS011;2651;51.594;9.928;2023-05-10T01:15:03;3.57;;;3.27;;
5257;SDS011;2651;51.594;9.928;2023-05-10T01:16:07;5.50;;;3.33;;
5257;SDS011;2651;51.594;9.928;2023-05-10T01:17:09;8.73;;;3.60;;
5257;SDS011;2651;51.594;9.928;2023-05-10T01:18:12;4.17;;;3.47;;
5257;SDS011;2651;51.594;9.928;2023-05-10T01:19:24;4.70;;;4.07;;
5257;SDS011;2651;51.594;9.928;2023-05-10T01:20:27;14.43;;;4.53;;
5257;SDS011;2651;51.594;9.928;2023-05-10T01:21:38;5.60;;;3.70;;
5257;SDS011;2651;51.594;9.928;2023-05-10T01:24:38;4.90;;;4.23;;
5257;SDS011;2651;51.594;9.928;2023-05-10T01:26:14;6.07;;;4.87;;
5257;SDS011;2651;51.594;9.928;2023-05-10T01:27:47;9.37;;;4.50;;
5257;SDS011;2651;51.594;9.928;2023-05-10T01:30:30;6.50;;;4.32;;
5257;SDS011;2651;51.594;9.928;2023-05-10T01:33:01;7.23;;;4.20;;
5257;SDS011;2651;51.594;9.928;2023-05-10T01:34:16;5.70;;;3.92;;
5257;SDS011;2651;51.594;9.928;2023-05-10T01:36:48;8.33;;;4.37;;
5257;SDS011;2651;51.594;9.928;2023-05-10T01:39:04;5.15;;;4.65;;
5257;SDS011;2651;51.594;9.928;2023-05-10T01:43:08;7.32;;;4.75;;
5257;SDS011;2651;51.594;9.928;2023-05-10T01:44:23;5.68;;;4.47;;
5257;SDS011;2651;51.594;9.928;2023-05-10T01:45:30;7.63;;;4.33;;
5257;SDS011;2651;51.594;9.928;2023-05-10T01:46:38;7.32;;;4.60;;
5257;SDS011;2651;51.594;9.928;2023-05-10T01:47:42;4.60;;;4.20;;
5257;SDS011;2651;51.594;9.928;2023-05-10T01:48:50;5.30;;;4.10;;
5257;SDS011;2651;51.594;9.928;2023-05-10T01:49:55;4.70;;;4.30;;
5257;SDS011;2651;51.594;9.928;2023-05-10T01:50:57;8.67;;;4.77;;
5257;SDS011;2651;51.594;9.928;2023-05-10T01:52:00;5.30;;;4.17;;
5257;SDS011;2651;51.594;9.928;2023-05-10T01:53:13;5.80;;;4.47;;
5257;SDS011;2651;51.594;9.928;2023-05-10T01:54:20;7.13;;;3.90;;
5257;SDS011;2651;51.594;9.928;2023-05-10T01:55:24;6.57;;;4.53;;
5257;SDS011;2651;51.594;9.928;2023-05-10T01:56:30;6.00;;;3.90;;
5257;SDS011;2651;51.594;9.928;2023-05-10T01:57:35;6.20;;;3.67;;
5257;SDS011;2651;51.594;9.928;2023-05-10T01:58:40;4.37;;;3.97;;
5257;SDS011;2651;51.594;9.928;2023-05-10T01:59:47;5.57;;;4.17;;
5257;SDS011;2651;51.594;9.928;2023-05-10T02:00:52;5.60;;;3.83;;
5257;SDS011;2651;51.594;9.928;2023-05-10T02:01:56;5.37;;;4.20;;
5257;SDS011;2651;51.594;9.928;2023-05-10T02:03:01;7.30;;;4.63;;
5257;SDS011;2651;51.594;9.928;2023-05-10T02:04:07;5.10;;;4.20;;
5257;SDS011;2651;51.594;9.928;2023-05-10T02:05:10;8.07;;;4.20;;
5257;SDS011;2651;51.594;9.928;2023-05-10T02:06:13;5.40;;;4.30;;
5257;SDS011;2651;51.594;9.928;2023-05-10T02:07:17;8.43;;;4.23;;
5257;SDS011;2651;51.594;9.928;2023-05-10T02:08:20;6.43;;;4.30;;
5257;SDS011;2651;51.594;9.928;2023-05-10T02:09:23;5.63;;;4.73;;
5257;SDS011;2651;51.594;9.928;2023-05-10T02:10:28;7.70;;;3.90;;
5257;SDS011;2651;51.594;9.928;2023-05-10T02:11:31;4.90;;;4.23;;
5257;SDS011;2651;51.594;9.928;2023-05-10T02:12:37;5.80;;;3.90;;
5257;SDS011;2651;51.594;9.928;2023-05-10T02:13:42;4.90;;;4.30;;
5257;SDS011;2651;51.594;9.928;2023-05-10T02:14:46;4.80;;;3.77;;
5257;SDS011;2651;51.594;9.928;2023-05-10T02:15:48;4.87;;;4.37;;
5257;SDS011;2651;51.594;9.928;2023-05-10T02:16:52;6.03;;;4.10;;
5257;SDS011;2651;51.594;9.928;2023-05-10T02:17:57;7.77;;;4.77;;
5257;SDS011;2651;51.594;9.928;2023-05-10T02:19:01;5.00;;;4.23;;
5257;SDS011;2651;51.594;9.928;2023-05-10T02:20:04;6.50;;;4.20;;
5257;SDS011;2651;51.594;9.928;2023-05-10T02:21:07;4.20;;;3.80;;
5257;SDS011;2651;51.594;9.928;2023-05-10T02:22:09;4.97;;;4.00;;
5257;SDS011;2651;51.594;9.928;2023-05-10T02:23:13;6.47;;;4.60;;
5257;SDS011;2651;51.594;9.928;2023-05-10T02:24:17;7.30;;;4.40;;
5257;SDS011;2651;51.594;9.928;2023-05-10T02:25:21;4.37;;;3.97;;
5257;SDS011;2651;51.594;9.928;2023-05-10T02:26:24;5.77;;;4.37;;
5257;SDS011;2651;51.594;9.928;2023-05-10T02:27:27;4.37;;;3.73;;
5257;SDS011;2651;51.594;9.928;2023-05-10T02:28:30;4.27;;;3.57;;
5257;SDS011;2651;51.594;9.928;2023-05-10T02:29:33;7.37;;;4.80;;
5257;SDS011;2651;51.594;9.928;2023-05-10T02:30:36;4.27;;;3.87;;
5257;SDS011;2651;51.594;9.928;2023-05-10T02:31:38;5.63;;;4.53;;
5257;SDS011;2651;51.594;9.928;2023-05-10T02:32:44;4.33;;;3.90;;
5257;SDS011;2651;51.594;9.928;2023-05-10T02:33:48;4.90;;;4.20;;
5257;SDS011;2651;51.594;9.928;2023-05-10T02:34:51;6.13;;;4.53;;
5257;SDS011;2651;51.594;9.928;2023-05-10T02:35:53;7.00;;;4.17;;
5257;SDS011;2651;51.594;9.928;2023-05-10T02:36:56;4.23;;;3.87;;
5257;SDS011;2651;51.594;9.928;2023-05-10T02:38:00;4.97;;;4.43;;
5257;SDS011;2651;51.594;9.928;2023-05-10T02:39:02;9.43;;;4.67;;
5257;SDS011;2651;51.594;9.928;2023-05-10T02:40:05;8.33;;;3.93;;
5257;SDS011;2651;51.594;9.928;2023-05-10T02:41:08;4.40;;;4.00;;
5257;SDS011;2651;51.594;9.928;2023-05-10T02:42:13;4.13;;;3.73;;
5257;SDS011;2651;51.594;9.928;2023-05-10T02:43:18;4.80;;;4.30;;
5257;SDS011;2651;51.594;9.928;2023-05-10T02:44:23;10.20;;;4.60;;
5257;SDS011;2651;51.594;9.928;2023-05-10T02:45:28;5.53;;;4.50;;
5257;SDS011;2651;51.594;9.928;2023-05-10T02:46:32;6.33;;;4.13;;
5257;SDS011;2651;51.594;9.928;2023-05-10T02:47:34;4.97;;;4.17;;
5257;SDS011;2651;51.594;9.928;2023-05-10T02:48:36;4.50;;;4.10;;
5257;SDS011;2651;51.594;9.928;2023-05-10T02:49:39;10.90;;;4.57;;
5257;SDS011;2651;51.594;9.928;2023-05-10T02:50:42;6.07;;;4.80;;
5257;SDS011;2651;51.594;9.928;2023-05-10T02:51:47;12.13;;;4.37;;
5257;SDS011;2651;51.594;9.928;2023-05-10T02:52:53;5.00;;;4.13;;
5257;SDS011;2651;51.594;9.928;2023-05-10T02:53:58;9.03;;;4.60;;
5257;SDS011;2651;51.594;9.928;2023-05-10T02:55:05;5.23;;;4.00;;
5257;SDS011;2651;51.594;9.928;2023-05-10T02:56:14;8.40;;;4.13;;
5257;SDS011;2651;51.594;9.928;2023-05-10T02:57:26;7.00;;;4.60;;
5257;SDS011;2651;51.594;9.928;2023-05-10T02:58:32;5.57;;;4.33;;
5257;SDS011;2651;51.594;9.928;2023-05-10T02:59:34;5.37;;;4.83;;
5257;SDS011;2651;51.594;9.928;2023-05-10T03:00:36;4.53;;;3.90;;
5257;SDS011;2651;51.594;9.928;2023-05-10T03:01:37;6.93;;;4.70;;
5257;SDS011;2651;51.594;9.928;2023-05-10T03:02:39;4.80;;;4.30;;
5257;SDS011;2651;51.594;9.928;2023-05-10T03:03:41;7.60;;;4.70;;
5257;SDS011;2651;51.594;9.928;2023-05-10T03:04:43;6.10;;;4.77;;
5257;SDS011;2651;51.594;9.928;2023-05-10T03:05:45;6.80;;;4.50;;
5257;SDS011;2651;51.594;9.928;2023-05-10T03:06:46;7.30;;;4.00;;
5257;SDS011;2651;51.594;9.928;2023-05-10T03:07:49;5.03;;;4.53;;
5257;SDS011;2651;51.594;9.928;2023-05-10T03:08:51;5.30;;;4.50;;
5257;SDS011;2651;51.594;9.928;2023-05-10T03:09:53;5.07;;;4.47;;
5257;SDS011;2651;51.594;9.928;2023-05-10T03:13:36;7.40;;;4.53;;
5257;SDS011;2651;51.594;9.928;2023-05-10T03:14:53;4.53;;;4.13;;
5257;SDS011;2651;51.594;9.928;2023-05-10T03:16:12;7.70;;;4.17;;
5257;SDS011;2651;51.594;9.928;2023-05-10T03:18:54;7.63;;;4.50;;
5257;SDS011;2651;51.594;9.928;2023-05-10T03:20:09;4.80;;;4.17;;
5257;SDS011;2651;51.594;9.928;2023-05-10T03:21:12;5.00;;;4.50;;
5257;SDS011;2651;51.594;9.928;2023-05-10T03:22:31;4.93;;;4.43;;
5257;SDS011;2651;51.594;9.928;2023-05-10T03:23:43;4.97;;;4.47;;
5257;SDS011;2651;51.594;9.928;2023-05-10T03:24:49;8.80;;;4.83;;
5257;SDS011;2651;51.594;9.928;2023-05-10T03:25:52;6.90;;;4.77;;
5257;SDS011;2651;51.594;9.928;2023-05-10T03:26:55;6.20;;;4.47;;
5257;SDS011;2651;51.594;9.928;2023-05-10T03:28:00;5.00;;;4.50;;
5257;SDS011;2651;51.594;9.928;2023-05-10T03:29:03;4.80;;;4.37;;
5257;SDS011;2651;51.594;9.928;2023-05-10T03:30:07;5.60;;;4.50;;
5257;SDS011;2651;51.594;9.928;2023-05-10T03:31:11;5.67;;;5.10;;
5257;SDS011;2651;51.594;9.928;2023-05-10T03:32:13;6.70;;;4.90;;
5257;SDS011;2651;51.594;9.928;2023-05-10T03:33:15;9.03;;;4.80;;
5257;SDS011;2651;51.594;9.928;2023-05-10T03:34:22;6.20;;;5.50;;
5257;SDS011;2651;51.594;9.928;2023-05-10T03:35:25;4.40;;;4.00;;
5257;SDS011;2651;51.594;9.928;2023-05-10T03:36:26;5.90;;;5.20;;
5257;SDS011;2651;51.594;9.928;2023-05-10T03:37:28;8.43;;;4.90;;
5257;SDS011;2651;51.594;9.928;2023-05-10T03:38:30;6.53;;;5.13;;
5257;SDS011;2651;51.594;9.928;2023-05-10T03:39:31;8.18;;;5.47;;
5257;SDS011;2651;51.594;9.928;2023-05-10T03:40:33;5.20;;;4.80;;
5257;SDS011;2651;51.594;9.928;2023-05-10T03:41:35;6.88;;;4.45;;
5257;SDS011;2651;51.594;9.928;2023-05-10T03:42:36;5.50;;;5.00;;
5257;SDS011;2651;51.594;9.928;2023-05-10T03:43:38;6.80;;;4.82;;
5257;SDS011;2651;51.594;9.928;2023-05-10T03:44:39;5.63;;;5.07;;
5257;SDS011;2651;51.594;9.928;2023-05-10T03:45:41;6.22;;;5.20;;
5257;SDS011;2651;51.594;9.928;2023-05-10T03:46:43;6.03;;;5.20;;
5257;SDS011;2651;51.594;9.928;2023-05-10T03:47:44;6.10;;;5.45;;
5257;SDS011;2651;51.594;9.928;2023-05-10T03:48:46;6.43;;;5.07;;
5257;SDS011;2651;51.594;9.928;2023-05-10T03:49:48;6.95;;;5.45;;
5257;SDS011;2651;51.594;9.928;2023-05-10T03:50:49;12.23;;;5.32;;
5257;SDS011;2651;51.594;9.928;2023-05-10T03:51:51;9.43;;;5.32;;
5257;SDS011;2651;51.594;9.928;2023-05-10T03:52:52;8.60;;;5.00;;
5257;SDS011;2651;51.594;9.928;2023-05-10T03:53:55;6.60;;;5.32;;
5257;SDS011;2651;51.594;9.928;2023-05-10T03:54:56;9.40;;;5.80;;
5257;SDS011;2651;51.594;9.928;2023-05-10T03:55:58;7.45;;;5.82;;
5257;SDS011;2651;51.594;9.928;2023-05-10T03:57:00;6.55;;;5.35;;
5257;SDS011;2651;51.594;9.928;2023-05-10T03:58:01;5.10;;;4.63;;
5257;SDS011;2651;51.594;9.928;2023-05-10T03:59:03;10.80;;;5.85;;
5257;SDS011;2651;51.594;9.928;2023-05-10T04:00:08;9.18;;;5.10;;
5257;SDS011;2651;51.594;9.928;2023-05-10T04:01:11;6.22;;;5.63;;
5257;SDS011;2651;51.594;9.928;2023-05-10T04:02:12;11.25;;;5.70;;
5257;SDS011;2651;51.594;9.928;2023-05-10T04:03:14;5.78;;;4.72;;
5257;SDS011;2651;51.594;9.928;2023-05-10T04:04:16;5.55;;;4.75;;
5257;SDS011;2651;51.594;9.928;2023-05-10T04:05:19;5.97;;;5.38;;
5257;SDS011;2651;51.594;9.928;2023-05-10T04:06:21;6.30;;;5.18;;
5257;SDS011;2651;51.594;9.928;2023-05-10T04:07:23;7.80;;;5.25;;
5257;SDS011;2651;51.594;9.928;2023-05-10T04:08:25;6.82;;;5.20;;
5257;SDS011;2651;51.594;9.928;2023-05-10T04:09:26;6.20;;;5.03;;
5257;SDS011;2651;51.594;9.928;2023-05-10T04:10:28;5.55;;;5.00;;
5257;SDS011;2651;51.594;9.928;2023-05-10T04:11:30;8.20;;;5.63;;
5257;SDS011;2651;51.594;9.928;2023-05-10T04:12:31;7.25;;;5.15;;
5257;SDS011;2651;51.594;9.928;2023-05-10T04:13:33;7.70;;;5.68;;
5257;SDS011;2651;51.594;9.928;2023-05-10T04:14:35;6.63;;;5.55;;
5257;SDS011;2651;51.594;9.928;2023-05-10T04:15:36;6.10;;;5.50;;
5257;SDS011;2651;51.594;9.928;2023-05-10T04:16:38;5.72;;;5.22;;
5257;SDS011;2651;51.594;9.928;2023-05-10T04:17:40;7.40;;;5.43;;
5257;SDS011;2651;51.594;9.928;2023-05-10T04:18:41;6.15;;;5.55;;
5257;SDS011;2651;51.594;9.928;2023-05-10T04:19:43;13.23;;;4.97;;
5257;SDS011;2651;51.594;9.928;2023-05-10T04:20:44;7.75;;;5.90;;
5257;SDS011;2651;51.594;9.928;2023-05-10T04:21:46;6.80;;;4.90;;
5257;SDS011;2651;51.594;9.928;2023-05-10T04:22:48;6.15;;;5.45;;
5257;SDS011;2651;51.594;9.928;2023-05-10T04:23:49;8.18;;;5.78;;
5257;SDS011;2651;51.594;9.928;2023-05-10T04:24:51;6.30;;;5.80;;
5257;SDS011;2651;51.594;9.928;2023-05-10T04:25:52;7.03;;;5.20;;
5257;SDS011;2651;51.594;9.928;2023-05-10T04:27:01;7.43;;;5.60;;
5257;SDS011;2651;51.594;9.928;2023-05-10T04:28:02;7.07;;;5.60;;
5257;SDS011;2651;51.594;9.928;2023-05-10T04:29:04;6.28;;;5.70;;
5257;SDS011;2651;51.594;9.928;2023-05-10T04:30:06;5.70;;;5.20;;
5257;SDS011;2651;51.594;9.928;2023-05-10T04:31:09;6.82;;;6.05;;
5257;SDS011;2651;51.594;9.928;2023-05-10T04:32:11;9.52;;;5.68;;
5257;SDS011;2651;51.594;9.928;2023-05-10T04:33:13;6.63;;;5.55;;
5257;SDS011;2651;51.594;9.928;2023-05-10T04:34:15;6.10;;;5.50;;
5257;SDS011;2651;51.594;9.928;2023-05-10T04:35:17;7.90;;;5.70;;
5257;SDS011;2651;51.594;9.928;2023-05-10T04:36:18;7.25;;;6.55;;
5257;SDS011;2651;51.594;9.928;2023-05-10T04:37:20;6.15;;;5.55;;
5257;SDS011;2651;51.594;9.928;2023-05-10T04:38:24;6.40;;;5.90;;
5257;SDS011;2651;51.594;9.928;2023-05-10T04:39:25;5.82;;;4.82;;
5257;SDS011;2651;51.594;9.928;2023-05-10T04:40:27;10.95;;;5.65;;
5257;SDS011;2651;51.594;9.928;2023-05-10T04:41:29;6.68;;;5.97;;
5257;SDS011;2651;51.594;9.928;2023-05-10T04:42:30;9.15;;;5.80;;
5257;SDS011;2651;51.594;9.928;2023-05-10T04:43:32;7.97;;;5.80;;
5257;SDS011;2651;51.594;9.928;2023-05-10T04:44:34;6.55;;;5.70;;
5257;SDS011;2651;51.594;9.928;2023-05-10T04:45:35;6.70;;;5.80;;
5257;SDS011;2651;51.594;9.928;2023-05-10T04:46:37;15.48;;;7.03;;
5257;SDS011;2651;51.594;9.928;2023-05-10T04:47:39;8.50;;;6.80;;
5257;SDS011;2651;51.594;9.928;2023-05-10T04:48:40;8.68;;;6.03;;
5257;SDS011;2651;51.594;9.928;2023-05-10T04:49:42;7.65;;;5.85;;
5257;SDS011;2651;51.594;9.928;2023-05-10T04:50:44;14.00;;;6.38;;
5257;SDS011;2651;51.594;9.928;2023-05-10T04:51:45;9.30;;;5.90;;
5257;SDS011;2651;51.594;9.928;2023-05-10T04:52:47;7.20;;;5.75;;
5257;SDS011;2651;51.594;9.928;2023-05-10T04:53:49;8.30;;;6.22;;
5257;SDS011;2651;51.594;9.928;2023-05-10T04:55:05;8.13;;;5.60;;
5257;SDS011;2651;51.594;9.928;2023-05-10T04:56:08;7.45;;;5.70;;
5257;SDS011;2651;51.594;9.928;2023-05-10T04:57:10;8.95;;;6.60;;
5257;SDS011;2651;51.594;9.928;2023-05-10T04:58:12;12.50;;;5.90;;
5257;SDS011;2651;51.594;9.928;2023-05-10T04:59:13;14.13;;;6.30;;
5257;SDS011;2651;51.594;9.928;2023-05-10T05:00:15;9.35;;;6.15;;
5257;SDS011;2651;51.594;9.928;2023-05-10T05:01:18;8.30;;;5.82;;
5257;SDS011;2651;51.594;9.928;2023-05-10T05:02:19;6.35;;;5.55;;
5257;SDS011;2651;51.594;9.928;2023-05-10T05:03:21;12.98;;;5.85;;
5257;SDS011;2651;51.594;9.928;2023-05-10T05:04:23;8.27;;;6.35;;
5257;SDS011;2651;51.594;9.928;2023-05-10T05:05:25;7.88;;;6.43;;
5257;SDS011;2651;51.594;9.928;2023-05-10T05:06:26;6.53;;;5.80;;
5257;SDS011;2651;51.594;9.928;2023-05-10T05:07:28;6.82;;;5.75;;
5257;SDS011;2651;51.594;9.928;2023-05-10T05:08:31;7.20;;;6.05;;
5257;SDS011;2651;51.594;9.928;2023-05-10T05:09:33;9.55;;;6.18;;
5257;SDS011;2651;51.594;9.928;2023-05-10T05:10:34;13.18;;;6.40;;
5257;SDS011;2651;51.594;9.928;2023-05-10T05:11:36;7.70;;;6.35;;
5257;SDS011;2651;51.594;9.928;2023-05-10T05:12:38;10.32;;;7.35;;
5257;SDS011;2651;51.594;9.928;2023-05-10T05:13:40;11.15;;;5.65;;
5257;SDS011;2651;51.594;9.928;2023-05-10T05:14:41;6.55;;;5.95;;
5257;SDS011;2651;51.594;9.928;2023-05-10T05:15:43;6.90;;;5.93;;
5257;SDS011;2651;51.594;9.928;2023-05-10T05:16:44;8.65;;;6.55;;
5257;SDS011;2651;51.594;9.928;2023-05-10T05:17:46;7.75;;;5.25;;
5257;SDS011;2651;51.594;9.928;2023-05-10T05:18:48;6.10;;;5.50;;
5257;SDS011;2651;51.594;9.928;2023-05-10T05:19:49;8.20;;;7.40;;
5257;SDS011;2651;51.594;9.928;2023-05-10T05:20:51;6.78;;;6.07;;
5257;SDS011;2651;51.594;9.928;2023-05-10T05:21:53;11.95;;;6.65;;
5257;SDS011;2651;51.594;9.928;2023-05-10T05:22:54;7.25;;;6.55;;
5257;SDS011;2651;51.594;9.928;2023-05-10T05:23:56;7.03;;;6.00;;
5257;SDS011;2651;51.594;9.928;2023-05-10T05:24:57;7.90;;;6.20;;
5257;SDS011;2651;51.594;9.928;2023-05-10T05:25:59;6.55;;;5.60;;
5257;SDS011;2651;51.594;9.928;2023-05-10T05:27:01;7.13;;;6.28;;
5257;SDS011;2651;51.594;9.928;2023-05-10T05:28:02;6.95;;;6.10;;
5257;SDS011;2651;51.594;9.928;2023-05-10T05:29:04;6.35;;;5.43;;
5257;SDS011;2651;51.594;9.928;2023-05-10T05:30:06;7.03;;;6.13;;
5257;SDS011;2651;51.594;9.928;2023-05-10T05:31:08;7.40;;;6.20;;
5257;SDS011;2651;51.594;9.928;2023-05-10T05:32:10;8.38;;;6.00;;
5257;SDS011;2651;51.594;9.928;2023-05-10T05:33:15;6.18;;;5.35;;
5257;SDS011;2651;51.594;9.928;2023-05-10T05:34:16;5.15;;;4.65;;
5257;SDS011;2651;51.594;9.928;2023-05-10T05:35:18;8.27;;;5.43;;
5257;SDS011;2651;51.594;9.928;2023-05-10T05:36:20;7.28;;;5.50;;
5257;SDS011;2651;51.594;9.928;2023-05-10T05:37:22;6.63;;;5.35;;
5257;SDS011;2651;51.594;9.928;2023-05-10T05:38:23;5.40;;;4.90;;
5257;SDS011;2651;51.594;9.928;2023-05-10T05:39:25;8.70;;;5.22;;
5257;SDS011;2651;51.594;9.928;2023-05-10T05:40:27;5.72;;;5.15;;
5257;SDS011;2651;51.594;9.928;2023-05-10T05:41:28;6.22;;;4.97;;
5257;SDS011;2651;51.594;9.928;2023-05-10T05:42:30;5.55;;;4.70;;
5257;SDS011;2651;51.594;9.928;2023-05-10T05:43:32;5.38;;;4.75;;
5257;SDS011;2651;51.594;9.928;2023-05-10T05:44:36;5.10;;;4.70;;
5257;SDS011;2651;51.594;9.928;2023-05-10T05:45:38;6.18;;;4.75;;
5257;SDS011;2651;51.594;9.928;2023-05-10T05:46:40;4.65;;;4.25;;
5257;SDS011;2651;51.594;9.928;2023-05-10T05:47:41;4.72;;;4.32;;
5257;SDS011;2651;51.594;9.928;2023-05-10T05:48:43;5.15;;;4.75;;
5257;SDS011;2651;51.594;9.928;2023-05-10T05:49:45;5.10;;;4.70;;
5257;SDS011;2651;51.594;9.928;2023-05-10T05:50:47;4.65;;;4.20;;
5257;SDS011;2651;51.594;9.928;2023-05-10T05:51:48;4.90;;;4.37;;
5257;SDS011;2651;51.594;9.928;2023-05-10T05:52:51;8.02;;;4.93;;
5257;SDS011;2651;51.594;9.928;2023-05-10T05:53:53;5.10;;;4.53;;
5257;SDS011;2651;51.594;9.928;2023-05-10T05:54:54;6.32;;;5.55;;
5257;SDS011;2651;51.594;9.928;2023-05-10T05:55:56;8.20;;;4.80;;
5257;SDS011;2651;51.594;9.928;2023-05-10T05:56:59;4.78;;;4.32;;
5257;SDS011;2651;51.594;9.928;2023-05-10T05:58:02;6.47;;;4.75;;
5257;SDS011;2651;51.594;9.928;2023-05-10T05:59:04;5.68;;;4.30;;
5257;SDS011;2651;51.594;9.928;2023-05-10T06:00:05;4.82;;;4.43;;
5257;SDS011;2651;51.594;9.928;2023-05-10T06:01:07;6.32;;;5.72;;
5257;SDS011;2651;51.594;9.928;2023-05-10T06:02:10;5.35;;;4.85;;
5257;SDS011;2651;51.594;9.928;2023-05-10T06:03:12;7.50;;;6.22;;
5257;SDS011;2651;51.594;9.928;2023-05-10T06:04:14;5.03;;;4.60;;
5257;SDS011;2651;51.594;9.928;2023-05-10T06:05:15;9.20;;;4.90;;
5257;SDS011;2651;51.594;9.928;2023-05-10T06:06:17;5.20;;;4.70;;
5257;SDS011;2651;51.594;9.928;2023-05-10T06:07:19;4.68;;;4.38;;
5257;SDS011;2651;51.594;9.928;2023-05-10T06:08:21;5.05;;;4.63;;
5257;SDS011;2651;51.594;9.928;2023-05-10T06:09:23;5.20;;;4.70;;
5257;SDS011;2651;51.594;9.928;2023-05-10T06:10:25;8.70;;;5.20;;
5257;SDS011;2651;51.594;9.928;2023-05-10T06:11:27;5.85;;;5.35;;
5257;SDS011;2651;51.594;9.928;2023-05-10T06:12:29;5.78;;;5.05;;
5257;SDS011;2651;51.594;9.928;2023-05-10T06:13:30;5.20;;;4.80;;
5257;SDS011;2651;51.594;9.928;2023-05-10T06:14:33;5.13;;;4.70;;
5257;SDS011;2651;51.594;9.928;2023-05-10T06:15:35;4.72;;;4.32;;
5257;SDS011;2651;51.594;9.928;2023-05-10T06:16:37;5.60;;;4.95;;
5257;SDS011;2651;51.594;9.928;2023-05-10T06:17:38;4.90;;;4.50;;
5257;SDS011;2651;51.594;9.928;2023-05-10T06:18:41;4.97;;;4.50;;
5257;SDS011;2651;51.594;9.928;2023-05-10T06:19:42;6.32;;;4.78;;
5257;SDS011;2651;51.594;9.928;2023-05-10T06:20:44;6.93;;;4.60;;
5257;SDS011;2651;51.594;9.928;2023-05-10T06:21:46;6.28;;;5.53;;
5257;SDS011;2651;51.594;9.928;2023-05-10T06:22:47;5.78;;;5.28;;
5257;SDS011;2651;51.594;9.928;2023-05-10T06:23:49;5.57;;;5.05;;
5257;SDS011;2651;51.594;9.928;2023-05-10T06:24:51;5.25;;;4.60;;
5257;SDS011;2651;51.594;9.928;2023-05-10T06:25:52;4.95;;;4.50;;
5257;SDS011;2651;51.594;9.928;2023-05-10T06:26:54;5.78;;;5.18;;
5257;SDS011;2651;51.594;9.928;2023-05-10T06:27:56;5.95;;;5.22;;
5257;SDS011;2651;51.594;9.928;2023-05-10T06:28:59;4.93;;;4.50;;
5257;SDS011;2651;51.594;9.928;2023-05-10T06:30:00;8.30;;;5.40;;
5257;SDS011;2651;51.594;9.928;2023-05-10T06:31:13;17.05;;;5.30;;
5257;SDS011;2651;51.594;9.928;2023-05-10T06:32:14;5.25;;;4.80;;
5257;SDS011;2651;51.594;9.928;2023-05-10T06:33:16;4.75;;;4.35;;
5257;SDS011;2651;51.594;9.928;2023-05-10T06:34:18;5.43;;;4.93;;
5257;SDS011;2651;51.594;9.928;2023-05-10T06:35:19;5.13;;;4.68;;
5257;SDS011;2651;51.594;9.928;2023-05-10T06:36:21;4.82;;;4.43;;
5257;SDS011;2651;51.594;9.928;2023-05-10T06:37:24;5.20;;;4.72;;
5257;SDS011;2651;51.594;9.928;2023-05-10T06:38:26;5.40;;;4.90;;
5257;SDS011;2651;51.594;9.928;2023-05-10T06:39:27;5.10;;;4.70;;
5257;SDS011;2651;51.594;9.928;2023-05-10T06:40:30;4.55;;;4.15;;
5257;SDS011;2651;51.594;9.928;2023-05-10T06:41:32;4.50;;;4.10;;
5257;SDS011;2651;51.594;9.928;2023-05-10T06:42:33;5.10;;;4.60;;
5257;SDS011;2651;51.594;9.928;2023-05-10T06:43:35;5.20;;;4.70;;
5257;SDS011;2651;51.594;9.928;2023-05-10T06:44:38;4.78;;;4.38;;
5257;SDS011;2651;51.594;9.928;2023-05-10T06:45:39;4.97;;;4.55;;
5257;SDS011;2651;51.594;9.928;2023-05-10T06:46:41;5.32;;;4.82;;